Grand Forks Air Force Base, ND

3:37 AM CST on December 19, 2014 (GMT -0600)
Crookston Municipal-Kirkwood | Change Station
CLOSE
Current Station
Airport
Location: Crookston,
Elevation: 899 ft
Nearby Weather Stations

Elev 899 ft 47.84 °N, 96.62 °W | Updated 22 minutes ago

Overcast
Overcast
21 °F
Feels Like 10 °F
N
12
Wind Variable Wind from South

Today
High -- | Low -- °F
--% Chance of Precip.
Yesterday
High -- | Low -- °F
Precip. -- in
8:15 AM 4:38 PM
Waning Crescent, 9% visible
Pressure 30.14 in
Visibility 10.0 miles
Clouds Mostly Cloudy 1400 ft
Windchill 10 °F
Dew Point 19 °F
Humidity 93%
Rainfall 0.00 in
Snow Depth Not available.
UV 0 out of 12
Pollen .10 out of 12
Air Quality Not available.
Flu Activity Not available.
METAR KCKN 190915Z AUTO 17010KT 10SM BKN014 M06/M07 A3014 RMK AO2

More Conditions Fewer Conditions

Pressure 30.14 in
Visibility 10.0 miles
Clouds Mostly Cloudy 1400 ft
Windchill 10 °F
Dew Point 19 °F
Humidity 93%
Rainfall 0.00 in
Snow Depth Not available.
UV 0 out of 12
Pollen .10 out of 12
Air Quality Not available.
Flu Activity Not available.
METAR KCKN 190915Z AUTO 17010KT 10SM BKN014 M06/M07 A3014 RMK AO2

More Conditions Fewer Conditions

10-Day Weather Forecast

Almanac

Astronomy

Dec. 19, 2014 Rise Set
Actual Time
Civil Twilight
Nautical Twilight
Astronomical Twilight
Moon
Length of Visible Light
Length of Day
Tomorrow will be .
, % of the Moon is Illuminated

Today's Extremes

State Highs State Lows

Community

WunderPhotos

Upload Photos

1,778,966 photos uploaded!

WunderBlogs® & News

Nearby

Air Quality

  Air Quality AQ Index Pollutant
Not available.

Snow Depth

Station Depth Elevation

Earthquake Activity

City Distance Mag. Time & Date
Minimum magnitude displayed is 2.5.

Coastal Water Temperatures

Place Temperature

Nearby Weather Stations